Time;durP1;ratioP1;P1;durP2;ratioP2;P2;SDS_P1;SDS_P2;PMS_P1;PMS_P2;Temp;Humidity;BMP_temperature;BMP_pressure;BME280_temperature;BME280_humidity;BME280_pressure;Samples;Min_cycle;Max_cycle;Signal;HPM_P1;HPM_P2
2021/12/11 00:01:16;;;;;;;;;;;0.40;99.90;;;;;;5037753;28;19917;-92
2021/12/11 00:03:43;;;;;;;;;;;0.40;99.90;;;;;;5037562;28;19924;-92
2021/12/11 00:06:21;;;;;;;;;;;0.40;99.90;;;;;;5012764;28;19921;-91
2021/12/11 00:08:48;;;;;;;;;;;0.40;99.90;;;;;;5029910;28;20003;-92
2021/12/11 00:11:23;;;;;;;;;;;0.40;99.90;;;;;;5008346;28;20272;-93
2021/12/11 00:13:52;;;;;;;;;;;0.30;99.90;;;;;;5026865;28;19931;-91
2021/12/11 00:16:22;;;;;;;;;;;0.40;99.90;;;;;;5035545;28;19917;-92
2021/12/11 00:18:57;;;;;;;;;;;0.40;99.90;;;;;;5019602;28;19980;-92
2021/12/11 00:21:25;;;;;;;;;;;0.30;99.90;;;;;;5010082;28;19971;-92
2021/12/11 00:23:57;;;;;;;;;;;0.30;99.90;;;;;;5036264;28;19960;-92
2021/12/11 00:26:30;;;;;;;;;;;0.40;99.90;;;;;;5013841;28;19917;-91
2021/12/11 00:28:57;;;;;;;;;;;0.30;99.90;;;;;;5014531;28;19923;-91
2021/12/11 00:31:22;;;;;;;;;;;0.30;99.90;;;;;;5035709;28;20383;-91
2021/12/11 00:33:49;;;;;;;;;;;0.30;99.90;;;;;;5020212;28;19921;-92
2021/12/11 00:36:17;;;;;;;;;;;0.30;99.90;;;;;;5006413;28;19923;-92
2021/12/11 00:38:43;;;;;;;;;;;0.30;99.90;;;;;;4991033;28;19924;-91
2021/12/11 00:41:11;;;;;;;;;;;0.40;99.90;;;;;;5020699;28;20309;-92
2021/12/11 00:43:44;;;;;;;;;;;0.30;99.90;;;;;;5003788;28;19917;-92
2021/12/11 00:46:14;;;;;;;;;;;0.30;99.90;;;;;;5004063;28;20131;-92
2021/12/11 00:48:45;;;;;;;;;;;0.30;99.90;;;;;;5011049;28;19941;-92
2021/12/11 00:51:13;;;;;;;;;;;0.30;99.90;;;;;;5003562;28;19918;-91
2021/12/11 00:53:42;;;;;;;;;;;0.30;99.90;;;;;;5022107;28;19924;-91
2021/12/11 00:56:13;;;;;;;;;;;0.30;99.90;;;;;;5021651;28;19917;-90
2021/12/11 00:58:39;;;;;;;;;;;0.30;99.90;;;;;;5021018;28;19925;-91
2021/12/11 01:01:08;;;;;;;;;;;0.30;99.90;;;;;;5021385;28;20378;-91
2021/12/11 01:03:48;;;;;;;;;;;0.30;99.90;;;;;;4988419;28;20444;-90
2021/12/11 01:06:24;;;;;;;;;;;0.30;99.90;;;;;;5014216;28;19921;-91
2021/12/11 01:08:57;;;;;;;;;;;0.30;99.90;;;;;;5004122;28;19925;-92
2021/12/11 01:11:26;;;;;;;;;;;0.30;99.90;;;;;;4993255;28;20353;-91
2021/12/11 01:14:05;;;;;;;;;;;;;;;;;;;;;
2021/12/11 01:16:31;;;;;;;;;;;0.20;99.90;;;;;;4984607;28;21717;-91
2021/12/11 01:19:04;;;;;;;;;;;0.20;99.90;;;;;;4993719;28;19914;-92
2021/12/11 01:27:13;;;;;;;;;;;0.30;99.90;;;;;;4991414;28;20012;-92
2021/12/11 01:29:43;;;;;;;;;;;0.30;99.90;;;;;;5001920;28;20391;-92
2021/12/11 01:32:19;;;;;;;;;;;0.30;99.90;;;;;;5007809;28;19968;-92
2021/12/11 01:34:50;;;;;;;;;;;0.30;99.90;;;;;;5032721;28;20397;-91
2021/12/11 01:37:16;;;;;;;;;;;0.40;99.90;;;;;;4998370;28;20406;-92
2021/12/11 01:39:57;;;;;;;;;;;0.40;99.90;;;;;;5027078;28;19917;-92
2021/12/11 01:42:27;;;;;;;;;;;0.40;99.90;;;;;;5021833;28;19920;-92
2021/12/11 01:44:57;;;;;;;;;;;0.30;99.90;;;;;;5030849;28;20026;-92
2021/12/11 01:47:32;;;;;;;;;;;0.40;99.90;;;;;;5021220;28;19917;-91
2021/12/11 01:50:02;;;;;;;;;;;0.40;99.90;;;;;;5032690;28;19921;-91
2021/12/11 01:52:39;;;;;;;;;;;0.30;99.90;;;;;;5008781;28;19912;-92
2021/12/11 01:55:25;;;;;;;;;;;0.40;99.90;;;;;;5041864;28;20229;-91
2021/12/11 01:58:14;;;;;;;;;;;0.50;99.90;;;;;;5018787;28;19921;-92
2021/12/11 02:00:44;;;;;;;;;;;0.40;99.90;;;;;;4997571;28;19996;-91
2021/12/11 02:03:13;;;;;;;;;;;0.40;99.90;;;;;;5020350;28;20403;-91
2021/12/11 02:05:42;;;;;;;;;;;0.40;99.90;;;;;;5006003;28;19928;-91
2021/12/11 02:08:10;;;;;;;;;;;0.40;99.90;;;;;;5003360;28;19914;-92
2021/12/11 02:10:45;;;;;;;;;;;0.40;99.90;;;;;;5035187;28;19917;-92
2021/12/11 02:13:13;;;;;;;;;;;0.50;99.90;;;;;;5008291;28;19913;-92
2021/12/11 02:18:45;;;;;;;;;;;0.50;99.90;;;;;;5011303;28;19913;-91
2021/12/11 02:21:14;;;;;;;;;;;0.50;99.90;;;;;;5022286;28;19913;-91
2021/12/11 02:23:42;;;;;;;;;;;0.50;99.90;;;;;;4996026;28;20007;-92
2021/12/11 02:26:23;;;;;;;;;;;0.50;99.90;;;;;;5008177;28;19936;-91
2021/12/11 02:29:25;;;;;;;;;;;0.50;99.90;;;;;;4987862;28;19929;-93
2021/12/11 02:32:03;;;;;;;;;;;0.50;99.90;;;;;;4950833;28;19933;-92
2021/12/11 02:34:53;;;;;;;;;;;0.60;99.90;;;;;;4918934;28;19949;-92
2021/12/11 02:37:44;;;;;;;;;;;0.50;99.90;;;;;;4942195;28;19925;-92
2021/12/11 02:46:10;;;;;;;;;;;0.40;99.90;;;;;;4945471;28;20589;-92
2021/12/11 02:48:47;;;;;;;;;;;0.30;99.90;;;;;;4976416;28;19940;-92
2021/12/11 02:51:24;;;;;;;;;;;0.40;99.90;;;;;;5026970;28;19921;-92
2021/12/11 02:54:07;;;;;;;;;;;0.40;99.90;;;;;;5005640;28;20275;-92
2021/12/11 02:56:37;;;;;;;;;;;0.40;99.90;;;;;;5014268;28;19913;-91
2021/12/11 02:59:07;;;;;;;;;;;0.30;99.90;;;;;;5038202;28;20288;-91
2021/12/11 03:01:44;;;;;;;;;;;0.30;99.90;;;;;;5012287;28;19913;-91
2021/12/11 03:04:25;;;;;;;;;;;0.30;99.90;;;;;;5037989;28;20555;-92
2021/12/11 03:06:54;;;;;;;;;;;0.30;99.90;;;;;;5039427;28;19913;-92
2021/12/11 03:09:22;;;;;;;;;;;0.30;99.90;;;;;;5039454;28;19925;-91
2021/12/11 03:11:53;;;;;;;;;;;0.30;99.90;;;;;;5013421;28;19929;-92
2021/12/11 03:14:19;;;;;;;;;;;0.30;99.90;;;;;;5010938;28;19968;-91
2021/12/11 03:16:45;;;;;;;;;;;0.40;99.90;;;;;;5027045;28;19963;-90
2021/12/11 03:19:15;;;;;;;;;;;0.30;99.90;;;;;;5038946;28;19967;-92
2021/12/11 03:21:44;;;;;;;;;;;0.30;99.90;;;;;;5030609;28;19917;-92
2021/12/11 03:24:10;;;;;;;;;;;0.40;99.90;;;;;;5005994;28;19988;-91
2021/12/11 03:26:38;;;;;;;;;;;0.40;99.90;;;;;;5015291;28;19913;-92
2021/12/11 03:29:05;;;;;;;;;;;0.40;99.90;;;;;;5022212;28;20323;-92
2021/12/11 03:31:36;;;;;;;;;;;0.50;99.90;;;;;;5010990;28;19917;-92
2021/12/11 03:34:04;;;;;;;;;;;0.50;99.90;;;;;;4999350;28;19917;-92
2021/12/11 03:36:32;;;;;;;;;;;0.50;99.90;;;;;;5009728;28;19917;-91
2021/12/11 03:39:05;;;;;;;;;;;0.60;99.90;;;;;;5019529;28;20436;-93
2021/12/11 03:41:31;;;;;;;;;;;0.60;99.90;;;;;;5021730;28;19978;-92
2021/12/11 03:43:56;;;;;;;;;;;0.50;99.90;;;;;;5024278;28;19933;-91
2021/12/11 03:46:25;;;;;;;;;;;0.50;99.90;;;;;;5013469;28;20382;-91
2021/12/11 03:49:08;;;;;;;;;;;0.40;99.90;;;;;;5024825;28;20431;-92
2021/12/11 03:51:38;;;;;;;;;;;0.40;99.90;;;;;;5039116;28;19913;-92
2021/12/11 03:54:06;;;;;;;;;;;0.40;99.90;;;;;;5033352;28;19917;-92
2021/12/11 03:56:38;;;;;;;;;;;0.60;99.90;;;;;;5013066;28;19952;-92
2021/12/11 03:59:09;;;;;;;;;;;0.60;99.90;;;;;;5040075;28;19920;-92
2021/12/11 04:01:37;;;;;;;;;;;0.70;99.90;;;;;;5039606;28;20015;-91
2021/12/11 04:04:05;;;;;;;;;;;0.60;99.90;;;;;;5024023;28;19931;-92
2021/12/11 04:06:30;;;;;;;;;;;0.40;99.90;;;;;;5041763;28;19917;-90
2021/12/11 04:08:58;;;;;;;;;;;0.40;99.90;;;;;;5023503;28;20009;-91
2021/12/11 04:11:26;;;;;;;;;;;0.30;99.90;;;;;;5030573;28;19917;-92
2021/12/11 04:13:53;;;;;;;;;;;0.40;99.90;;;;;;5004588;28;20375;-91
2021/12/11 04:16:19;;;;;;;;;;;0.40;99.90;;;;;;5008508;28;19913;-90
2021/12/11 04:18:46;;;;;;;;;;;0.60;99.90;;;;;;5022005;28;19913;-91
2021/12/11 04:21:30;;;;;;;;;;;0.60;99.90;;;;;;5037042;28;19947;-91
2021/12/11 04:24:05;;;;;;;;;;;0.60;99.90;;;;;;4987285;28;20693;-92
2021/12/11 04:26:31;;;;;;;;;;;0.50;99.90;;;;;;5001425;28;19917;-91
2021/12/11 04:29:02;;;;;;;;;;;0.30;99.90;;;;;;5021764;28;19939;-92
2021/12/11 04:31:30;;;;;;;;;;;0.30;99.90;;;;;;4993940;28;19924;-92
2021/12/11 04:33:57;;;;;;;;;;;0.30;99.90;;;;;;5011121;28;19913;-92
2021/12/11 04:36:28;;;;;;;;;;;0.30;99.90;;;;;;5035662;28;19917;-92
2021/12/11 04:39:03;;;;;;;;;;;0.30;99.90;;;;;;4992477;28;19987;-91
2021/12/11 04:41:35;;;;;;;;;;;0.30;99.90;;;;;;5009047;28;19917;-92
2021/12/11 04:44:05;;;;;;;;;;;0.20;99.90;;;;;;5025813;28;19921;-90
2021/12/11 04:46:30;;;;;;;;;;;0.20;99.90;;;;;;5024309;28;19913;-92
2021/12/11 04:49:03;;;;;;;;;;;0.30;99.90;;;;;;5022914;28;19913;-92
2021/12/11 04:51:40;;;;;;;;;;;0.20;99.90;;;;;;5036643;28;20364;-92
2021/12/11 05:02:41;;;;;;;;;;;0.20;99.90;;;;;;5022866;28;19917;-92
2021/12/11 05:07:36;;;;;;;;;;;0.30;99.90;;;;;;5022816;28;19924;-92
2021/12/11 05:10:19;;;;;;;;;;;0.30;99.90;;;;;;5038975;28;19918;-92
2021/12/11 05:12:47;;;;;;;;;;;0.20;99.90;;;;;;5025992;28;19963;-92
2021/12/11 05:15:15;;;;;;;;;;;0.30;99.90;;;;;;5032179;28;20363;-93
2021/12/11 05:17:42;;;;;;;;;;;0.20;99.90;;;;;;5034505;28;20351;-91
2021/12/11 05:20:09;;;;;;;;;;;0.30;99.90;;;;;;5037984;28;19913;-91
2021/12/11 05:22:39;;;;;;;;;;;0.40;99.90;;;;;;5017302;28;19918;-91
2021/12/11 05:28:09;;;;;;;;;;;0.30;99.90;;;;;;5028167;28;20007;-91
2021/12/11 05:30:38;;;;;;;;;;;0.20;99.90;;;;;;5020956;28;20221;-86
2021/12/11 05:33:04;;;;;;;;;;;0.10;99.90;;;;;;5036281;28;19925;-85
2021/12/11 05:35:31;;;;;;;;;;;0.20;99.90;;;;;;5021363;28;19927;-86
2021/12/11 05:37:57;;;;;;;;;;;0.20;99.90;;;;;;5037366;28;19917;-85
2021/12/11 05:40:23;;;;;;;;;;;0.20;99.90;;;;;;5036872;28;19924;-85
2021/12/11 05:42:50;;;;;;;;;;;0.20;99.90;;;;;;5037740;28;19924;-85
2021/12/11 05:45:16;;;;;;;;;;;0.30;99.90;;;;;;5037058;28;20514;-86
2021/12/11 05:47:41;;;;;;;;;;;0.30;99.90;;;;;;5037768;28;19917;-86
2021/12/11 05:50:14;;;;;;;;;;;0.30;99.90;;;;;;5021487;28;19921;-86
2021/12/11 05:52:40;;;;;;;;;;;0.40;99.90;;;;;;5036788;28;19944;-86
2021/12/11 05:55:08;;;;;;;;;;;0.40;99.90;;;;;;5022020;28;20746;-86
2021/12/11 05:57:36;;;;;;;;;;;0.30;99.90;;;;;;5021611;28;19923;-86
2021/12/11 06:00:05;;;;;;;;;;;0.20;99.90;;;;;;5022881;28;19952;-86
2021/12/11 06:02:31;;;;;;;;;;;0.40;99.90;;;;;;5023461;28;20296;-86
2021/12/11 06:05:00;;;;;;;;;;;0.40;99.90;;;;;;5022192;28;19925;-86
2021/12/11 06:07:27;;;;;;;;;;;0.30;99.90;;;;;;5019213;28;20442;-86
2021/12/11 06:09:58;;;;;;;;;;;0.40;99.90;;;;;;5038865;28;20419;-85
2021/12/11 06:12:23;;;;;;;;;;;0.40;99.90;;;;;;5039395;28;20541;-85
2021/12/11 06:14:50;;;;;;;;;;;0.50;99.90;;;;;;5031597;28;19964;-85
2021/12/11 06:17:21;;;;;;;;;;;0.50;99.90;;;;;;5024786;28;19920;-86
2021/12/11 06:19:52;;;;;;;;;;;0.40;99.90;;;;;;5015659;28;20004;-85
2021/12/11 06:22:18;;;;;;;;;;;0.50;99.90;;;;;;5014371;28;19913;-84
2021/12/11 06:24:44;;;;;;;;;;;0.40;99.90;;;;;;5031450;28;20035;-85
2021/12/11 06:27:09;;;;;;;;;;;0.40;99.90;;;;;;5024353;28;20364;-84
2021/12/11 06:29:35;;;;;;;;;;;0.40;99.90;;;;;;5028455;28;19917;-85
2021/12/11 06:32:01;;;;;;;;;;;0.30;99.90;;;;;;5039299;28;19921;-85
2021/12/11 06:34:26;;;;;;;;;;;0.30;99.90;;;;;;5026699;28;19924;-85
2021/12/11 06:36:54;;;;;;;;;;;0.20;99.90;;;;;;5039135;28;19956;-84
2021/12/11 06:39:21;;;;;;;;;;;0.30;99.90;;;;;;5025651;28;19939;-84
2021/12/11 06:41:50;;;;;;;;;;;0.30;99.90;;;;;;5039180;28;20131;-84
2021/12/11 06:44:16;;;;;;;;;;;0.40;99.90;;;;;;5024834;28;19921;-84
2021/12/11 06:46:42;;;;;;;;;;;0.30;99.90;;;;;;5025036;28;20442;-85
2021/12/11 06:49:08;;;;;;;;;;;0.30;99.90;;;;;;5024878;28;20399;-84
2021/12/11 06:51:34;;;;;;;;;;;0.30;99.90;;;;;;5040189;28;19946;-84
2021/12/11 06:54:03;;;;;;;;;;;0.20;99.90;;;;;;5026776;28;20246;-84
2021/12/11 06:56:29;;;;;;;;;;;0.30;99.90;;;;;;5039926;28;19917;-84
2021/12/11 06:58:54;;;;;;;;;;;0.30;99.90;;;;;;5025464;28;20360;-84
2021/12/11 07:01:21;;;;;;;;;;;0.30;99.90;;;;;;5039670;28;20025;-82
2021/12/11 07:03:46;;;;;;;;;;;0.40;99.90;;;;;;5040305;28;20427;-82
2021/12/11 07:06:12;;;;;;;;;;;0.30;99.90;;;;;;5024705;28;19968;-84
2021/12/11 07:08:39;;;;;;;;;;;0.30;99.90;;;;;;5025360;28;19917;-86
2021/12/11 07:11:06;;;;;;;;;;;0.30;99.90;;;;;;5039716;28;19913;-86
2021/12/11 07:13:33;;;;;;;;;;;0.30;99.90;;;;;;5031974;28;19948;-85
2021/12/11 07:16:00;;;;;;;;;;;0.30;99.90;;;;;;5024970;28;19913;-84
2021/12/11 07:18:27;;;;;;;;;;;0.30;99.90;;;;;;5026134;28;20353;-84
2021/12/11 07:21:04;;;;;;;;;;;0.40;99.90;;;;;;5022411;28;20566;-85
2021/12/11 07:23:34;;;;;;;;;;;0.30;99.90;;;;;;5015708;28;19917;-86
2021/12/11 07:26:03;;;;;;;;;;;0.50;99.90;;;;;;5003741;28;19940;-85
2021/12/11 07:28:29;;;;;;;;;;;0.50;99.90;;;;;;5013376;28;20388;-84
2021/12/11 07:30:57;;;;;;;;;;;0.50;99.90;;;;;;5023171;28;20035;-85
2021/12/11 07:33:23;;;;;;;;;;;0.50;99.90;;;;;;5022601;28;19927;-85
2021/12/11 07:35:52;;;;;;;;;;;0.50;99.90;;;;;;4990343;28;19917;-85
2021/12/11 07:38:19;;;;;;;;;;;0.40;99.90;;;;;;4986473;28;19914;-85
2021/12/11 07:40:50;;;;;;;;;;;0.40;99.90;;;;;;4997683;28;19924;-84
2021/12/11 07:43:16;;;;;;;;;;;0.40;99.90;;;;;;5024796;28;19941;-85
2021/12/11 07:45:45;;;;;;;;;;;0.40;99.90;;;;;;5010800;28;19991;-84
2021/12/11 07:48:11;;;;;;;;;;;0.40;99.90;;;;;;4989228;28;19917;-84
2021/12/11 07:50:39;;;;;;;;;;;0.40;99.90;;;;;;5018284;28;20355;-84
2021/12/11 07:53:05;;;;;;;;;;;0.50;99.90;;;;;;5010490;28;19941;-85
2021/12/11 07:55:37;;;;;;;;;;;0.50;99.90;;;;;;4968686;28;20034;-85
2021/12/11 07:58:06;;;;;;;;;;;0.50;99.90;;;;;;5011342;28;20042;-88
2021/12/11 08:00:33;;;;;;;;;;;0.50;99.90;;;;;;5006418;28;19925;-85
2021/12/11 08:02:59;;;;;;;;;;;0.50;99.90;;;;;;4983280;28;20317;-85
2021/12/11 08:05:27;;;;;;;;;;;0.50;99.90;;;;;;5010371;28;20037;-85
2021/12/11 08:07:58;;;;;;;;;;;0.50;99.90;;;;;;4990056;28;20396;-86
2021/12/11 08:10:24;;;;;;;;;;;0.50;99.90;;;;;;5016555;28;19917;-85
2021/12/11 08:12:50;;;;;;;;;;;0.50;99.90;;;;;;5023114;28;19920;-85
2021/12/11 08:15:16;;;;;;;;;;;0.50;99.90;;;;;;5007796;28;19918;-87
2021/12/11 08:17:42;;;;;;;;;;;0.40;99.90;;;;;;4991309;28;19921;-86
2021/12/11 08:20:09;;;;;;;;;;;0.50;99.90;;;;;;5021981;28;20351;-86
2021/12/11 08:22:35;;;;;;;;;;;0.60;99.90;;;;;;5019522;28;20343;-86
2021/12/11 08:25:01;;;;;;;;;;;0.60;99.90;;;;;;5012874;28;19944;-87
2021/12/11 08:27:27;;;;;;;;;;;0.60;99.90;;;;;;5021083;28;20264;-85
2021/12/11 08:29:53;;;;;;;;;;;0.70;99.90;;;;;;5021637;28;20442;-85
2021/12/11 08:32:19;;;;;;;;;;;0.60;99.90;;;;;;5021208;28;19921;-85
2021/12/11 08:34:44;;;;;;;;;;;0.50;99.90;;;;;;5005045;28;19917;-84
2021/12/11 08:37:11;;;;;;;;;;;0.50;99.90;;;;;;5019525;28;20024;-85
2021/12/11 08:39:37;;;;;;;;;;;0.50;99.90;;;;;;5038335;28;20040;-85
2021/12/11 08:42:04;;;;;;;;;;;0.50;99.90;;;;;;5023622;28;19935;-85
2021/12/11 08:44:38;;;;;;;;;;;0.60;99.90;;;;;;5023882;28;19936;-85
2021/12/11 08:47:07;;;;;;;;;;;0.60;99.90;;;;;;5019051;28;19913;-85
2021/12/11 08:49:33;;;;;;;;;;;0.50;99.90;;;;;;5022009;28;19917;-85
2021/12/11 08:52:02;;;;;;;;;;;0.50;99.90;;;;;;5035824;28;19935;-85
2021/12/11 08:54:28;;;;;;;;;;;0.40;99.90;;;;;;5019733;28;19927;-84
2021/12/11 08:56:55;;;;;;;;;;;0.40;99.90;;;;;;5021247;28;20391;-85
2021/12/11 08:59:22;;;;;;;;;;;0.40;99.90;;;;;;5027508;28;19992;-85
2021/12/11 09:01:53;;;;;;;;;;;0.40;99.90;;;;;;5034142;28;19925;-85
2021/12/11 09:04:40;;;;;;;;;;;0.40;99.90;;;;;;5035950;28;20436;-85
2021/12/11 09:07:08;;;;;;;;;;;0.40;99.90;;;;;;5021338;28;19917;-85
2021/12/11 09:09:41;;;;;;;;;;;0.50;99.90;;;;;;5029714;28;19923;-85
2021/12/11 09:12:10;;;;;;;;;;;0.60;99.90;;;;;;5019345;28;20175;-85
2021/12/11 09:14:54;;;;;;;;;;;0.60;99.90;;;;;;5033192;28;19996;-85
2021/12/11 09:17:25;;;;;;;;;;;0.60;99.90;;;;;;5018732;28;20559;-85
2021/12/11 09:19:53;;;;;;;;;;;0.60;99.90;;;;;;5003734;28;21552;-84
2021/12/11 09:22:24;;;;;;;;;;;0.50;99.90;;;;;;5019687;28;19921;-84
2021/12/11 09:24:58;;;;;;;;;;;0.50;99.90;;;;;;5035844;28;20612;-84
2021/12/11 09:27:30;;;;;;;;;;;0.60;99.90;;;;;;5019742;28;19921;-89
2021/12/11 09:30:08;;;;;;;;;;;0.60;99.90;;;;;;5027726;28;20686;-89
2021/12/11 09:32:43;;;;;;;;;;;0.50;99.90;;;;;;4997112;28;19925;-88
2021/12/11 09:35:21;;;;;;;;;;;0.50;99.90;;;;;;4997889;28;19924;-87
2021/12/11 09:44:29;;;;;;;;;;;0.60;99.90;;;;;;4952609;28;20052;-88
2021/12/11 09:47:00;;;;;;;;;;;0.50;99.90;;;;;;4918094;28;20012;-88
2021/12/11 09:58:37;;;;;;;;;;;0.40;99.90;;;;;;4935966;28;20408;-88
2021/12/11 10:01:14;;;;;;;;;;;0.50;99.90;;;;;;4920922;28;19958;-87
2021/12/11 10:03:49;;;;;;;;;;;0.60;99.90;;;;;;4934360;28;19914;-88
2021/12/11 10:13:07;;;;;;;;;;;;;;;;;;;;;
2021/12/11 10:19:33;;;;;;;;;;;;;;;;;;;;;
2021/12/11 10:22:20;;;;;;;;;;;0.80;99.90;;;;;;4839355;29;21509;-87
2021/12/11 10:30:46;;;;;;;;;;;0.80;99.90;;;;;;4904839;28;20036;-88
2021/12/11 10:36:17;;;;;;;;;;;;;;;;;;;;;
2021/12/11 10:38:47;;;;;;;;;;;0.70;99.90;;;;;;4932440;28;20092;-88
2021/12/11 10:41:25;;;;;;;;;;;0.70;99.90;;;;;;4915974;28;20293;-88
2021/12/11 10:44:17;;;;;;;;;;;0.60;99.90;;;;;;4937986;28;19930;-88
2021/12/11 10:46:49;;;;;;;;;;;0.60;99.90;;;;;;4933851;28;19918;-89
2021/12/11 10:49:15;;;;;;;;;;;0.50;99.90;;;;;;4948779;28;19914;-88
2021/12/11 10:51:49;;;;;;;;;;;0.50;99.90;;;;;;4936256;28;19918;-87
2021/12/11 10:54:32;;;;;;;;;;;0.60;99.90;;;;;;4924413;28;19945;-88
2021/12/11 10:57:03;;;;;;;;;;;0.60;99.90;;;;;;4935003;28;20366;-89
2021/12/11 10:59:34;;;;;;;;;;;0.40;99.90;;;;;;5007963;28;20386;-87
2021/12/11 11:02:20;;;;;;;;;;;0.40;99.90;;;;;;4989153;28;19917;-88
2021/12/11 11:05:00;;;;;;;;;;;0.40;99.90;;;;;;4965299;28;19972;-88
2021/12/11 11:07:44;;;;;;;;;;;0.50;99.90;;;;;;4913292;28;20289;-88
2021/12/11 11:10:15;;;;;;;;;;;0.40;99.90;;;;;;4945092;28;20360;-87
2021/12/11 11:13:04;;;;;;;;;;;0.50;99.90;;;;;;4979673;28;20009;-88
2021/12/11 11:15:41;;;;;;;;;;;0.60;99.90;;;;;;4985420;28;19944;-87
2021/12/11 11:18:08;;;;;;;;;;;0.50;99.90;;;;;;4984368;28;19968;-88
2021/12/11 11:20:41;;;;;;;;;;;0.50;99.90;;;;;;5015267;28;20015;-87
2021/12/11 11:23:08;;;;;;;;;;;0.50;99.90;;;;;;5027491;28;19955;-89
2021/12/11 11:25:35;;;;;;;;;;;0.50;99.90;;;;;;5024544;28;20411;-86
2021/12/11 11:28:27;;;;;;;;;;;0.50;99.90;;;;;;5002648;28;20434;-87
2021/12/11 11:31:26;;;;;;;;;;;0.60;99.90;;;;;;4989542;28;19980;-88
2021/12/11 11:33:52;;;;;;;;;;;0.70;99.90;;;;;;4991632;28;20480;-87
2021/12/11 11:36:19;;;;;;;;;;;0.70;99.90;;;;;;4976251;28;19968;-89
2021/12/11 11:39:05;;;;;;;;;;;0.80;99.90;;;;;;4937154;28;19919;-87
2021/12/11 11:41:45;;;;;;;;;;;0.80;99.90;;;;;;4936699;28;19956;-88
2021/12/11 11:44:42;;;;;;;;;;;0.70;99.90;;;;;;4976499;28;19918;-88
2021/12/11 11:47:50;;;;;;;;;;;;;;;;;;;;;
2021/12/11 11:53:24;;;;;;;;;;;0.70;99.90;;;;;;4989980;28;19913;-87
2021/12/11 11:55:53;;;;;;;;;;;0.70;99.90;;;;;;4974600;28;20305;-87
2021/12/11 11:58:18;;;;;;;;;;;0.70;99.90;;;;;;4971994;28;19918;-87
2021/12/11 12:01:10;;;;;;;;;;;;;;;;;;;;;
2021/12/11 12:06:40;;;;;;;;;;;0.80;99.90;;;;;;4917308;28;19966;-88
2021/12/11 12:12:55;;;;;;;;;;;0.90;99.90;;;;;;4987657;28;19967;-87
2021/12/11 12:27:12;;;;;;;;;;;0.80;99.90;;;;;;4779750;29;20015;-86
2021/12/11 12:29:38;;;;;;;;;;;0.70;99.90;;;;;;4793229;29;20007;-89
2021/12/11 12:32:18;;;;;;;;;;;0.70;99.90;;;;;;4831479;29;19923;-88
2021/12/11 12:34:44;;;;;;;;;;;0.60;99.90;;;;;;4813323;29;19932;-82
2021/12/11 12:37:10;;;;;;;;;;;0.60;99.90;;;;;;4816461;29;20370;-83
2021/12/11 12:39:39;;;;;;;;;;;0.50;99.90;;;;;;4830557;29;19990;-82
2021/12/11 12:42:18;;;;;;;;;;;0.60;99.90;;;;;;4830298;29;21096;-82
2021/12/11 12:44:46;;;;;;;;;;;0.60;99.90;;;;;;4819970;29;19944;-83
2021/12/11 12:47:18;;;;;;;;;;;0.60;99.90;;;;;;4797802;29;19944;-82
2021/12/11 12:49:45;;;;;;;;;;;0.50;99.90;;;;;;4812829;29;20333;-83
2021/12/11 12:52:16;;;;;;;;;;;0.50;99.90;;;;;;4811849;29;19917;-83
2021/12/11 12:54:42;;;;;;;;;;;0.50;99.90;;;;;;4812315;29;19976;-82
2021/12/11 12:57:17;;;;;;;;;;;0.50;99.90;;;;;;4833099;29;20343;-82
2021/12/11 12:59:48;;;;;;;;;;;0.70;99.90;;;;;;4904667;29;19960;-82
2021/12/11 13:02:18;;;;;;;;;;;0.70;99.90;;;;;;4990057;28;19925;-85
2021/12/11 13:04:55;;;;;;;;;;;0.70;99.90;;;;;;5004194;28;19917;-83
2021/12/11 13:07:21;;;;;;;;;;;0.60;99.90;;;;;;5001452;28;19921;-84
2021/12/11 13:09:51;;;;;;;;;;;0.60;99.90;;;;;;4984754;28;19918;-85
2021/12/11 13:12:21;;;;;;;;;;;0.60;99.90;;;;;;4986280;28;20276;-83
2021/12/11 13:14:48;;;;;;;;;;;0.60;99.90;;;;;;4986848;28;19980;-84
2021/12/11 13:17:23;;;;;;;;;;;0.60;99.90;;;;;;4991387;28;20069;-84
2021/12/11 13:19:50;;;;;;;;;;;0.60;99.90;;;;;;5001849;28;19971;-84
2021/12/11 13:22:25;;;;;;;;;;;0.70;99.90;;;;;;4991315;28;20408;-84
2021/12/11 13:24:53;;;;;;;;;;;0.60;99.90;;;;;;5003235;28;20005;-84
2021/12/11 13:27:21;;;;;;;;;;;0.60;99.90;;;;;;5000364;28;19922;-82
2021/12/11 13:29:52;;;;;;;;;;;0.60;99.90;;;;;;4982431;28;20039;-83
2021/12/11 13:32:20;;;;;;;;;;;0.60;99.90;;;;;;4995961;28;19922;-83
2021/12/11 13:34:51;;;;;;;;;;;0.70;99.90;;;;;;4996853;28;19933;-83
2021/12/11 13:37:17;;;;;;;;;;;0.60;99.90;;;;;;4997339;28;20377;-83
2021/12/11 13:39:44;;;;;;;;;;;0.60;99.90;;;;;;4988280;28;19976;-82
2021/12/11 13:42:12;;;;;;;;;;;0.50;99.90;;;;;;4991411;28;19983;-83
2021/12/11 13:44:38;;;;;;;;;;;0.50;99.90;;;;;;4984047;28;20309;-83
2021/12/11 13:47:06;;;;;;;;;;;0.60;99.90;;;;;;4966551;28;20383;-82
2021/12/11 13:49:31;;;;;;;;;;;0.60;99.90;;;;;;4979970;28;19930;-82
2021/12/11 13:51:57;;;;;;;;;;;0.70;99.90;;;;;;4999552;28;19921;-82
2021/12/11 13:54:23;;;;;;;;;;;0.60;99.90;;;;;;4998065;28;19922;-82
2021/12/11 13:56:51;;;;;;;;;;;0.50;99.90;;;;;;4980616;28;20362;-82
2021/12/11 13:59:17;;;;;;;;;;;0.60;99.90;;;;;;4985355;28;19918;-82
2021/12/11 14:01:43;;;;;;;;;;;0.50;99.90;;;;;;4990709;28;19925;-82
2021/12/11 14:04:12;;;;;;;;;;;1.10;99.90;;;;;;4990879;28;19933;-82
2021/12/11 14:06:47;;;;;;;;;;;1.30;99.90;;;;;;4980949;28;20008;-82
2021/12/11 14:09:13;;;;;;;;;;;1.60;99.90;;;;;;4989213;28;20377;-82
2021/12/11 14:11:39;;;;;;;;;;;1.70;99.90;;;;;;4984708;28;20406;-82
2021/12/11 14:14:07;;;;;;;;;;;1.70;99.90;;;;;;4972132;28;19918;-82
2021/12/11 14:16:33;;;;;;;;;;;1.40;99.90;;;;;;4982234;28;19918;-82
2021/12/11 14:18:58;;;;;;;;;;;1.10;99.90;;;;;;5019075;28;19917;-82
2021/12/11 14:21:24;;;;;;;;;;;0.90;99.90;;;;;;5003681;28;19921;-82
2021/12/11 14:23:51;;;;;;;;;;;0.80;99.90;;;;;;5002764;28;19967;-81
2021/12/11 14:26:20;;;;;;;;;;;0.90;99.90;;;;;;4999821;28;20655;-83
2021/12/11 14:28:46;;;;;;;;;;;0.80;99.90;;;;;;4999205;28;19922;-82
2021/12/11 14:31:13;;;;;;;;;;;0.80;99.90;;;;;;5000398;28;19983;-82
2021/12/11 14:33:39;;;;;;;;;;;0.70;99.90;;;;;;4994694;28;20296;-83
2021/12/11 14:36:07;;;;;;;;;;;0.80;99.90;;;;;;5038527;28;19921;-82
2021/12/11 14:38:33;;;;;;;;;;;0.80;99.90;;;;;;5037891;28;19968;-83
2021/12/11 14:41:00;;;;;;;;;;;0.80;99.90;;;;;;5025417;28;19921;-83
2021/12/11 14:43:25;;;;;;;;;;;0.90;99.90;;;;;;5015993;28;20210;-83
2021/12/11 14:45:53;;;;;;;;;;;0.80;99.90;;;;;;5023975;28;20015;-83
2021/12/11 14:48:19;;;;;;;;;;;0.80;99.90;;;;;;5020878;28;20347;-83
2021/12/11 14:50:52;;;;;;;;;;;0.70;99.90;;;;;;5029176;28;19924;-83
2021/12/11 14:53:21;;;;;;;;;;;0.70;99.90;;;;;;5025000;28;19921;-82
2021/12/11 14:55:49;;;;;;;;;;;0.60;99.90;;;;;;5026661;28;20494;-83
2021/12/11 14:58:17;;;;;;;;;;;0.60;99.90;;;;;;5022569;28;20045;-83
2021/12/11 15:00:46;;;;;;;;;;;0.60;99.90;;;;;;5040436;28;19992;-82
2021/12/11 15:03:12;;;;;;;;;;;0.60;99.90;;;;;;5026827;28;19944;-83
2021/12/11 15:05:41;;;;;;;;;;;0.60;99.90;;;;;;5024523;28;19918;-83
2021/12/11 15:08:08;;;;;;;;;;;0.70;99.90;;;;;;5024137;28;19921;-83
2021/12/11 15:10:34;;;;;;;;;;;0.70;99.90;;;;;;5005239;28;19955;-82
2021/12/11 15:13:02;;;;;;;;;;;0.60;99.90;;;;;;5040369;28;19925;-84
2021/12/11 15:15:32;;;;;;;;;;;0.70;99.90;;;;;;5038978;28;19917;-88
2021/12/11 15:17:58;;;;;;;;;;;0.60;99.90;;;;;;5022482;28;20020;-83
2021/12/11 15:20:38;;;;;;;;;;;0.60;99.90;;;;;;5022246;28;19992;-82
2021/12/11 15:23:04;;;;;;;;;;;0.60;99.90;;;;;;5041442;28;20365;-83
2021/12/11 15:25:30;;;;;;;;;;;0.60;99.90;;;;;;5023113;28;19932;-82
2021/12/11 15:27:56;;;;;;;;;;;0.60;99.90;;;;;;5040631;28;19917;-83
2021/12/11 15:30:24;;;;;;;;;;;0.60;99.90;;;;;;5025325;28;20288;-83
2021/12/11 15:32:51;;;;;;;;;;;0.60;99.90;;;;;;5040904;28;19925;-82
2021/12/11 15:35:19;;;;;;;;;;;0.60;99.90;;;;;;5022708;28;19933;-82
2021/12/11 15:37:44;;;;;;;;;;;0.60;99.90;;;;;;5025648;28;20476;-82
2021/12/11 15:40:14;;;;;;;;;;;0.70;99.90;;;;;;5026360;28;19929;-82
2021/12/11 15:42:40;;;;;;;;;;;0.60;99.90;;;;;;5022853;28;19925;-82
2021/12/11 15:45:06;;;;;;;;;;;0.70;99.90;;;;;;5023688;28;20043;-82
2021/12/11 15:47:33;;;;;;;;;;;0.70;99.90;;;;;;5040118;28;19917;-82
2021/12/11 15:50:01;;;;;;;;;;;0.60;99.90;;;;;;5025160;28;20432;-83
2021/12/11 15:52:27;;;;;;;;;;;0.50;99.90;;;;;;5025722;28;19917;-82
2021/12/11 15:54:53;;;;;;;;;;;0.40;99.90;;;;;;5038442;28;19921;-83
2021/12/11 15:57:19;;;;;;;;;;;0.40;99.90;;;;;;5037875;28;20352;-82
2021/12/11 15:59:46;;;;;;;;;;;0.40;99.90;;;;;;5021175;28;19944;-83
2021/12/11 16:02:11;;;;;;;;;;;0.40;99.90;;;;;;5037820;28;19921;-82
2021/12/11 16:04:37;;;;;;;;;;;0.40;99.90;;;;;;5039466;28;20326;-83
2021/12/11 16:07:04;;;;;;;;;;;0.40;99.90;;;;;;5021810;28;19932;-83
2021/12/11 16:09:30;;;;;;;;;;;0.40;99.90;;;;;;5023527;28;20020;-81
2021/12/11 16:11:58;;;;;;;;;;;0.40;99.90;;;;;;5035807;28;20020;-82
2021/12/11 16:14:25;;;;;;;;;;;0.50;99.90;;;;;;5022822;28;20697;-82
2021/12/11 16:16:52;;;;;;;;;;;0.40;99.90;;;;;;5022448;28;20372;-83
2021/12/11 16:19:23;;;;;;;;;;;0.40;99.90;;;;;;5037490;28;19921;-83